CheckWX is a tool to help pilots better visualize weather data.  It is not intended as a substitute for an official pre-flight weather briefing.

15:43:07 UTC

UAOO METAR
Kzyl-Orda Southwest Airport
Kzyl-Orda, Kazakhstan
Current

13 mins ago

UAOO 211530Z 04007MPS CAVOK M10/M21 Q1032 R05/CLRD70 NOSIG RMK QFE762/1016
Observed
Nov-21 @ 15:30 UTC
Wind
  • 040° at 14 KTS
Visibility
10,000+ meters
Flight Rules
VFR
Cloud Levels
  • Clear skies
Temperature
-10°C / 14°F
Dewpoint
-21°C / -6°F
Humidity
41%
Altimeter
30.47" Hg
Pressure
1031.92 hPa
Previous

43 mins ago

UAOO 211500Z 04007MPS CAVOK M09/M22 Q1031 R05/CLRD70 NOSIG RMK QFE762/1016
Observed
Nov-21 @ 15:00 UTC
Wind
  • 040° at 14 KTS
Visibility
10,000+ meters
Flight Rules
VFR
Cloud Levels
  • Clear skies
Temperature
-9°C / 16°F
Dewpoint
-22°C / -8°F
Humidity
34%
Altimeter
30.44" Hg
Pressure
1030.92 hPa
Previous

1 hour ago

UAOO 211430Z 04007MPS CAVOK M08/M22 Q1031 R05/CLRD70 NOSIG RMK QFE762/1016
Observed
Nov-21 @ 14:30 UTC
Wind
  • 040° at 14 KTS
Visibility
10,000+ meters
Flight Rules
VFR
Cloud Levels
  • Clear skies
Temperature
-8°C / 18°F
Dewpoint
-22°C / -8°F
Humidity
32%
Altimeter
30.44" Hg
Pressure
1030.92 hPa